aviador You're here:

PAMO Decoded Metar

MOUNTAIN VILLAGE in AK, USA
Report Time2018-01-23 05:01:00
UTC Time2018-01-23 05:30:38
Flight Rules vfr VFR
Wind350° at 04 kt
W.Decomp.*RWY 02: 2.9 kt HW 2.8 kt LCW
W.Rank350° ranks 4
Current wind is below 350° avg. (10.3)
Visibility9999 m
Phenomena:N/A
Clouds:N/A
Expected CloudBase > 1,200 ft AGL from Temp-Dew spread
CeilingNone
Temp-24°C (ISA -38)
Dew Point-27°C (76% RH)
AAT-29.2°C
QNH1027 hPa
Density Alt-5,092 ft
Elevation338 ft
Report Wrong Elevation
Raw Report
PAMO 230501Z AUTO 35004KT 9SM CLR M24/M27 A3032 RMK AO2 SLP282
T12441267 FZRANO=

Extra information for PAMO:More info

Metar Taf Metar & Taf Last 4 Metars F.Rules Stats Wind Profile Meteogram Temp Stats Airport Information Weather charts Add Link Nearby VenuesMetar ALERT Operation Metar Decoded Social comments

AIRNAV info for PAMO